Time;durP1;ratioP1;P1;durP2;ratioP2;P2;SDS_P1;SDS_P2;PMS_P1;PMS_P2;Temp;Humidity;BMP_temperature;BMP_pressure;BME280_temperature;BME280_humidity;BME280_pressure;Samples;Min_cycle;Max_cycle;Signal;HPM_P1;HPM_P2
2023/01/29 00:00:11;0.00;0.00;0.62;0.00;0.00;0.62;3.90;2.30;;;21.30;23.30;;;;;;2255963;61;20397;-59
2023/01/29 00:02:59;0.00;0.00;0.62;0.00;0.00;0.62;3.57;2.80;;;21.30;23.20;;;;;;2255559;61;20358;-63
2023/01/29 00:05:44;0.00;0.00;0.62;0.00;0.00;0.62;3.00;2.70;;;21.30;23.10;;;;;;2254602;61;20383;-59
2023/01/29 00:08:31;0.00;0.00;0.62;0.00;0.00;0.62;2.97;2.57;;;21.30;23.10;;;;;;2255530;61;20425;-60
2023/01/29 00:11:16;0.00;0.00;0.62;0.00;0.00;0.62;4.27;3.23;;;21.30;23.10;;;;;;2255261;61;20366;-58
2023/01/29 00:14:01;0.00;0.00;0.62;0.00;0.00;0.62;3.40;3.10;;;21.20;23.00;;;;;;2256027;61;20408;-61
2023/01/29 00:16:46;0.00;0.00;0.62;0.00;0.00;0.62;3.00;2.57;;;21.20;22.90;;;;;;2255458;61;20904;-61
2023/01/29 00:19:31;0.00;0.00;0.62;0.00;0.00;0.62;3.93;3.00;;;21.20;22.90;;;;;;2254918;61;20913;-62
2023/01/29 00:22:15;0.00;0.00;0.62;0.00;0.00;0.62;3.50;3.00;;;21.20;22.80;;;;;;2255777;61;20370;-58
2023/01/29 00:25:01;0.00;0.00;0.62;0.00;0.00;0.62;3.87;2.60;;;21.20;22.80;;;;;;2255285;61;20523;-62
2023/01/29 00:27:46;0.00;0.00;0.62;0.00;0.00;0.62;3.23;2.93;;;21.20;22.80;;;;;;2254835;61;20373;-59
2023/01/29 00:30:31;0.00;0.00;0.62;0.00;0.00;0.62;3.53;3.23;;;21.20;22.80;;;;;;2255898;61;20417;-63
2023/01/29 00:33:15;0.00;0.00;0.62;0.00;0.00;0.62;3.10;2.70;;;21.10;22.70;;;;;;2255118;61;20420;-56
2023/01/29 00:36:03;0.00;0.00;0.62;0.00;0.00;0.62;3.40;2.87;;;21.10;22.60;;;;;;2255861;61;20362;-62
2023/01/29 00:38:57;0.00;0.00;0.62;0.00;0.00;0.62;3.80;3.07;;;21.10;22.60;;;;;;2255765;61;20780;-64
2023/01/29 00:44:56;0.00;0.00;0.62;0.00;0.00;0.62;3.73;3.30;;;21.10;22.50;;;;;;2255648;61;20825;-62
2023/01/29 00:47:41;0.00;0.00;0.62;0.00;0.00;0.62;3.67;2.97;;;21.00;22.50;;;;;;2254750;61;20769;-60
2023/01/29 00:50:26;0.00;0.00;0.62;0.00;0.00;0.62;4.23;3.20;;;21.00;22.50;;;;;;2278486;61;20398;-61
2023/01/29 00:53:11;0.00;0.00;0.62;0.00;0.00;0.62;3.40;3.10;;;21.00;22.50;;;;;;2254800;61;20944;-61
2023/01/29 00:55:55;0.00;0.00;0.62;0.00;0.00;0.62;3.37;3.07;;;21.00;22.40;;;;;;2254715;61;20668;-57
2023/01/29 00:58:41;0.00;0.00;0.62;0.00;0.00;0.62;3.13;2.67;;;20.90;22.30;;;;;;2255712;61;20458;-65
2023/01/29 01:04:30;0.00;0.00;0.62;0.00;0.00;0.62;4.83;3.57;;;20.90;22.30;;;;;;2254399;61;20378;-61
2023/01/29 01:07:15;0.00;0.00;0.62;0.00;0.00;0.62;3.40;2.50;;;20.90;22.30;;;;;;2255582;61;20519;-59
2023/01/29 01:13:06;0.00;0.00;0.62;0.00;0.00;0.62;3.27;2.90;;;20.90;22.30;;;;;;2255176;61;20365;-61
2023/01/29 01:15:53;0.00;0.00;0.62;0.00;0.00;0.62;2.60;2.17;;;20.80;22.30;;;;;;2255652;61;20374;-54
2023/01/29 01:18:38;0.00;0.00;0.62;0.00;0.00;0.62;3.30;2.90;;;20.80;22.30;;;;;;2255120;61;20374;-53
2023/01/29 01:21:23;0.00;0.00;0.62;0.00;0.00;0.62;3.83;3.00;;;20.80;22.30;;;;;;2255997;61;20412;-53
2023/01/29 01:24:08;0.00;0.00;0.62;0.00;0.00;0.62;3.13;2.83;;;20.80;22.30;;;;;;2255714;61;20362;-54
2023/01/29 01:26:53;0.00;0.00;0.62;0.00;0.00;0.62;3.20;2.90;;;20.80;22.30;;;;;;2254142;61;20357;-55
2023/01/29 01:29:37;0.00;0.00;0.62;0.00;0.00;0.62;3.80;3.03;;;20.70;22.20;;;;;;2255479;61;20405;-54
2023/01/29 01:32:24;0.00;0.00;0.62;0.00;0.00;0.62;4.30;3.43;;;20.70;22.20;;;;;;2255480;61;20366;-58
2023/01/29 01:35:12;0.00;0.00;0.62;0.00;0.00;0.62;3.77;2.70;;;20.70;22.20;;;;;;2255875;61;20434;-62
2023/01/29 01:37:57;0.00;0.00;0.62;0.00;0.00;0.62;4.47;4.07;;;20.70;22.20;;;;;;2255272;61;20412;-58
2023/01/29 01:40:45;0.00;0.00;0.62;0.00;0.00;0.62;5.23;4.10;;;20.60;22.10;;;;;;2254445;61;20378;-58
2023/01/29 01:43:49;0.00;0.00;0.62;0.00;0.00;0.62;4.43;3.80;;;20.60;22.00;;;;;;2255868;61;20357;-58
2023/01/29 01:46:36;0.00;0.00;0.62;0.00;0.00;0.62;3.40;3.10;;;20.50;21.90;;;;;;2254893;61;20357;-57
2023/01/29 01:49:23;0.00;0.00;0.62;0.00;0.00;0.62;4.60;3.47;;;20.50;22.00;;;;;;2255225;61;20402;-57
2023/01/29 01:52:09;0.00;0.00;0.62;0.00;0.00;0.62;3.70;3.40;;;20.40;22.00;;;;;;2256431;61;20362;-55
2023/01/29 01:54:54;0.00;0.00;0.62;0.00;0.00;0.62;4.63;4.20;;;20.40;22.50;;;;;;2255028;61;20893;-59
2023/01/29 01:57:42;0.00;0.00;0.62;0.00;0.00;0.62;4.60;4.13;;;20.30;22.10;;;;;;2258409;61;20424;-55
2023/01/29 02:00:27;0.00;0.00;0.62;0.00;0.00;0.62;5.50;4.83;;;20.30;21.80;;;;;;2258384;61;20462;-56
2023/01/29 02:09:32;0.00;0.00;0.62;0.00;0.00;0.62;4.37;3.97;;;20.20;21.70;;;;;;2255821;61;20389;-55
2023/01/29 02:12:18;0.00;0.00;0.62;0.00;0.00;0.62;4.03;3.70;;;20.10;21.60;;;;;;2256458;61;20450;-57
2023/01/29 02:15:04;0.00;0.00;0.62;0.00;0.00;0.62;4.80;4.27;;;20.10;21.80;;;;;;2256074;61;20413;-55
2023/01/29 02:17:49;0.00;0.00;0.62;0.00;0.00;0.62;4.80;4.30;;;20.00;21.50;;;;;;2255205;61;20366;-58
2023/01/29 02:20:36;0.00;0.00;0.62;0.00;0.00;0.62;5.00;4.50;;;20.00;21.50;;;;;;2256247;61;20381;-56
2023/01/29 02:23:44;0.00;0.00;0.62;0.00;0.00;0.62;4.70;4.27;;;19.90;21.40;;;;;;2255990;61;20819;-56
2023/01/29 02:26:53;0.00;0.00;0.62;0.00;0.00;0.62;3.80;3.40;;;19.80;21.40;;;;;;2255403;61;20370;-53
2023/01/29 02:29:56;0.00;0.00;0.62;0.00;0.00;0.62;4.43;4.03;;;19.90;21.60;;;;;;2255811;61;20451;-53
2023/01/29 02:32:57;0.00;0.00;0.62;0.00;0.00;0.62;4.80;3.87;;;19.80;21.60;;;;;;2258064;61;20377;-52
2023/01/29 02:35:49;0.00;0.00;0.62;0.00;0.00;0.62;5.00;4.50;;;19.80;21.60;;;;;;2256217;61;20400;-55
2023/01/29 02:38:41;0.00;0.00;0.62;0.00;0.00;0.62;4.70;3.90;;;19.70;21.60;;;;;;2256169;61;20417;-54
2023/01/29 02:41:33;0.00;0.00;0.62;0.00;0.00;0.62;4.33;3.93;;;19.70;21.70;;;;;;2255221;61;20408;-56
2023/01/29 02:44:27;0.00;0.00;0.62;0.00;0.00;0.62;5.00;3.97;;;19.70;21.70;;;;;;2255829;61;20916;-58
2023/01/29 02:47:22;0.00;0.00;0.62;0.00;0.00;0.62;4.80;4.30;;;19.70;21.70;;;;;;2255285;61;20358;-59
2023/01/29 02:50:18;0.00;0.00;0.62;0.00;0.00;0.62;5.00;4.50;;;19.70;21.70;;;;;;2258379;61;20389;-54
2023/01/29 02:53:08;0.00;0.00;0.62;0.00;0.00;0.62;4.53;3.40;;;19.70;21.70;;;;;;2256209;61;20361;-54
2023/01/29 02:55:58;0.00;0.00;0.62;0.00;0.00;0.62;4.20;3.57;;;19.70;21.80;;;;;;2255454;61;20354;-58
2023/01/29 02:58:49;0.00;0.00;0.62;0.00;0.00;0.62;4.00;3.60;;;19.60;21.80;;;;;;2258443;61;20590;-57
2023/01/29 03:01:41;0.00;0.00;0.62;0.00;0.00;0.62;6.17;4.10;;;19.60;21.80;;;;;;2258205;61;20887;-55
2023/01/29 03:04:32;0.00;0.00;0.62;0.00;0.00;0.62;4.43;4.03;;;19.60;21.80;;;;;;2258229;61;20366;-52
2023/01/29 03:10:41;0.00;0.00;0.62;0.00;0.00;0.62;5.07;4.50;;;19.60;21.70;;;;;;2254978;61;20445;-57
2023/01/29 03:13:33;0.00;0.00;0.62;0.00;0.00;0.62;5.60;5.10;;;19.50;21.50;;;;;;2255786;61;20492;-57
2023/01/29 03:16:24;0.00;0.00;0.62;0.00;0.00;0.62;6.03;5.53;;;19.50;21.20;;;;;;2254593;61;20405;-58
2023/01/29 03:19:15;0.00;0.00;0.62;0.00;0.00;0.62;8.27;5.10;;;19.40;21.20;;;;;;2256113;61;20498;-54
2023/01/29 03:22:07;0.00;0.00;0.62;0.00;0.00;0.62;6.23;5.63;;;19.40;21.20;;;;;;2255410;61;20401;-59
2023/01/29 03:34:27;0.00;0.00;0.62;0.00;0.00;0.62;6.37;5.77;;;19.20;21.00;;;;;;2255579;61;20373;-54
2023/01/29 03:37:19;0.00;0.00;0.62;0.00;0.00;0.62;7.63;6.17;;;19.20;21.00;;;;;;2257722;61;20370;-58
2023/01/29 03:40:07;0.00;0.00;0.62;0.00;0.00;0.62;6.40;5.80;;;19.10;21.00;;;;;;2257388;61;20405;-55
2023/01/29 03:43:02;0.00;0.00;0.62;0.00;0.00;0.62;6.13;5.53;;;19.10;21.10;;;;;;2255286;61;20413;-57
2023/01/29 03:46:00;0.00;0.00;0.62;0.00;0.00;0.62;6.57;5.87;;;19.10;21.20;;;;;;2257304;61;20889;-62
2023/01/29 03:48:54;0.00;0.00;0.62;0.00;0.00;0.62;6.53;5.90;;;19.10;21.20;;;;;;2257969;61;20370;-53
2023/01/29 03:51:48;0.00;0.00;0.62;0.00;0.00;0.62;6.23;5.63;;;19.00;21.00;;;;;;2255737;61;20972;-56
2023/01/29 03:54:47;0.00;0.00;0.62;0.00;0.00;0.62;6.10;5.50;;;19.00;21.10;;;;;;2255421;61;20386;-56
2023/01/29 03:57:37;0.00;0.00;0.62;0.00;0.00;0.62;6.23;5.00;;;19.00;21.10;;;;;;2255800;61;20370;-58
2023/01/29 04:00:29;0.00;0.00;0.62;0.00;0.00;0.62;6.00;5.40;;;19.00;21.20;;;;;;2258197;61;20421;-58
2023/01/29 04:03:22;0.00;0.00;0.62;0.00;0.00;0.62;4.77;4.37;;;19.00;21.20;;;;;;2258410;61;21059;-54
2023/01/29 04:06:15;0.00;0.00;0.62;0.00;0.00;0.62;6.50;5.83;;;19.00;21.30;;;;;;2254791;61;20398;-57
2023/01/29 04:09:21;0.00;0.00;0.62;0.00;0.00;0.62;5.60;5.10;;;19.00;21.30;;;;;;2254678;61;20849;-57
2023/01/29 04:12:10;0.00;0.00;0.62;0.00;0.00;0.62;6.30;5.17;;;18.90;21.20;;;;;;2256215;61;20421;-57
2023/01/29 04:15:02;0.00;0.00;0.62;0.00;0.00;0.62;6.13;5.53;;;18.90;21.20;;;;;;2255083;61;20362;-56
2023/01/29 04:17:51;0.00;0.00;0.62;0.00;0.00;0.62;6.67;5.97;;;18.90;21.20;;;;;;2255088;61;20442;-54
2023/01/29 04:20:43;0.00;0.00;0.62;0.00;0.00;0.62;5.30;4.80;;;18.90;21.20;;;;;;2257985;61;20378;-56
2023/01/29 04:23:28;0.00;0.00;0.62;0.00;0.00;0.62;6.30;5.70;;;18.90;21.20;;;;;;2257535;61;20813;-58
2023/01/29 04:26:49;0.00;0.00;0.62;0.00;0.00;0.62;5.70;5.17;;;18.90;21.20;;;;;;2257855;61;20366;-52
2023/01/29 04:29:56;0.00;0.00;0.62;0.00;0.00;0.62;6.00;5.40;;;18.80;21.20;;;;;;2255292;61;20389;-58
2023/01/29 04:32:59;0.00;0.00;0.62;0.00;0.00;0.62;5.90;5.37;;;18.80;21.20;;;;;;2255797;61;20424;-56
2023/01/29 04:36:06;0.00;0.00;0.62;0.00;0.00;0.62;6.03;5.43;;;18.80;21.30;;;;;;2258027;61;20458;-61
2023/01/29 04:39:07;0.00;0.00;0.62;0.00;0.00;0.62;6.83;6.23;;;18.80;21.20;;;;;;2255096;61;20420;-56
2023/01/29 04:41:58;0.00;0.00;0.62;0.00;0.00;0.62;6.80;6.10;;;18.70;21.00;;;;;;2256078;61;20400;-57
2023/01/29 04:44:54;0.00;0.00;0.62;0.00;0.00;0.62;6.80;6.10;;;18.70;21.10;;;;;;2255555;61;20408;-61
2023/01/29 04:47:49;0.00;0.00;0.62;0.00;0.00;0.62;6.47;5.83;;;18.70;21.10;;;;;;2255436;61;20408;-56
2023/01/29 04:50:39;0.00;0.00;0.62;0.00;0.00;0.62;6.03;5.53;;;18.70;21.20;;;;;;2255309;61;20378;-55
2023/01/29 04:53:34;0.00;0.00;0.62;0.00;0.00;0.62;5.20;4.70;;;18.70;21.30;;;;;;2255229;61;20408;-59
2023/01/29 04:56:28;0.00;0.00;0.62;0.00;0.00;0.62;5.37;4.87;;;18.70;21.30;;;;;;2255862;61;20362;-57
2023/01/29 04:59:17;0.00;0.00;0.62;0.00;0.00;0.62;5.40;4.13;;;18.70;21.40;;;;;;2254555;61;20390;-58
2023/01/29 05:02:06;0.00;0.00;0.62;0.00;0.00;0.62;4.97;4.47;;;18.70;21.40;;;;;;2254706;61;20918;-56
2023/01/29 05:04:52;0.00;0.00;0.62;0.00;0.00;0.62;4.27;3.87;;;18.80;21.50;;;;;;2254973;61;20466;-60
2023/01/29 05:07:39;0.00;0.00;0.62;0.00;0.00;0.62;4.57;4.13;;;18.80;21.50;;;;;;2254977;61;20767;-60
2023/01/29 05:10:25;0.00;0.00;0.62;0.00;0.00;0.62;5.03;4.63;;;18.80;21.50;;;;;;2255677;61;20393;-58
2023/01/29 05:13:13;0.00;0.00;0.62;0.00;0.00;0.62;5.73;4.97;;;18.80;21.50;;;;;;2255408;61;20725;-58
2023/01/29 05:16:05;0.00;0.00;0.62;0.00;0.00;0.62;5.43;4.33;;;18.80;21.40;;;;;;2255063;61;20388;-56
2023/01/29 05:18:51;0.00;0.00;0.62;0.00;0.00;0.62;4.80;4.40;;;18.80;21.40;;;;;;2255596;61;20421;-57
2023/01/29 05:21:37;0.00;0.00;0.62;0.00;0.00;0.62;6.10;5.50;;;18.80;21.40;;;;;;2256207;61;20366;-51
2023/01/29 05:24:24;0.00;0.00;0.62;0.00;0.00;0.62;6.03;5.43;;;18.70;21.20;;;;;;2255945;61;20412;-54
2023/01/29 05:30:19;0.00;0.00;0.62;0.00;0.00;0.62;5.90;5.30;;;18.70;21.00;;;;;;2255736;61;21181;-55
2023/01/29 05:33:11;0.00;0.00;0.62;0.00;0.00;0.62;5.77;5.27;;;18.70;21.00;;;;;;2256147;61;20378;-59
2023/01/29 05:35:59;0.00;0.00;0.62;0.00;0.00;0.62;8.13;6.03;;;18.60;20.90;;;;;;2255811;61;20424;-56
2023/01/29 05:38:43;0.00;0.00;0.62;0.00;0.00;0.62;6.80;6.10;;;18.60;20.90;;;;;;2256130;61;20373;-54
2023/01/29 05:41:28;0.00;0.00;0.62;0.00;0.00;0.62;7.37;5.77;;;18.60;20.90;;;;;;2256277;61;20798;-56
2023/01/29 05:44:13;0.00;0.00;0.62;0.00;0.00;0.62;6.93;6.00;;;18.50;20.80;;;;;;2256041;61;20365;-55
2023/01/29 05:46:58;0.00;0.00;0.62;0.00;0.00;0.62;6.50;5.83;;;18.50;20.80;;;;;;2255817;61;21078;-59
2023/01/29 05:49:42;0.00;0.00;0.62;0.00;0.00;0.62;7.30;6.53;;;18.50;20.80;;;;;;2282428;58;20390;-53
2023/01/29 05:52:29;0.00;0.00;0.62;0.00;0.00;0.62;5.63;5.13;;;18.50;20.80;;;;;;2255771;61;20389;-58
2023/01/29 05:55:13;0.00;0.00;0.62;0.00;0.00;0.62;8.53;6.40;;;18.50;20.90;;;;;;2255957;61;20446;-55
2023/01/29 05:57:59;0.00;0.00;0.62;0.00;0.00;0.62;7.87;6.60;;;18.40;20.80;;;;;;2255305;61;20896;-57
2023/01/29 06:00:43;0.00;0.00;0.62;0.00;0.00;0.62;8.20;7.40;;;18.40;20.80;;;;;;2256080;61;20435;-56
2023/01/29 06:03:28;0.00;0.00;0.62;0.00;0.00;0.62;7.67;6.87;;;18.40;20.70;;;;;;2255730;61;20762;-55
2023/01/29 06:06:13;0.00;0.00;0.62;0.00;0.00;0.62;8.07;6.03;;;18.40;20.80;;;;;;2255629;61;20385;-59
2023/01/29 06:08:59;0.00;0.00;0.62;0.00;0.00;0.62;6.57;5.83;;;18.30;20.80;;;;;;2255795;61;20865;-62
2023/01/29 06:11:43;0.00;0.00;0.62;0.00;0.00;0.62;7.13;6.30;;;18.30;20.80;;;;;;2255585;61;20912;-59
2023/01/29 06:14:28;0.00;0.00;0.62;0.00;0.00;0.62;6.87;6.17;;;18.30;20.80;;;;;;2255369;61;20966;-59
2023/01/29 06:17:13;0.00;0.00;0.62;0.00;0.00;0.62;7.40;6.70;;;18.30;20.80;;;;;;2255678;61;20385;-56
2023/01/29 06:19:57;0.00;0.00;0.62;0.00;0.00;0.62;6.43;5.70;;;18.30;20.80;;;;;;2255698;61;20941;-57
2023/01/29 06:22:42;0.00;0.00;0.62;0.00;0.00;0.62;9.30;7.33;;;18.30;20.80;;;;;;2255772;61;20416;-54
2023/01/29 06:25:28;0.00;0.00;0.62;0.00;0.00;0.62;7.17;5.73;;;18.20;20.80;;;;;;2255993;61;20365;-58
2023/01/29 06:28:12;0.00;0.00;0.62;0.00;0.00;0.62;8.17;6.73;;;18.20;20.80;;;;;;2255720;61;20466;-62
2023/01/29 06:30:58;0.00;0.00;0.62;0.00;0.00;0.62;8.47;6.83;;;18.20;20.80;;;;;;2255644;61;20664;-65
2023/01/29 06:33:42;0.00;0.00;0.62;0.00;0.00;0.62;7.13;6.40;;;18.20;20.80;;;;;;2255767;61;20426;-64
2023/01/29 06:36:30;0.00;0.00;0.62;0.00;0.00;0.62;5.30;4.80;;;18.20;20.90;;;;;;2255363;61;20369;-59
2023/01/29 06:39:16;0.00;0.00;0.62;0.00;0.00;0.62;5.13;4.60;;;18.20;21.00;;;;;;2256108;61;20393;-61
2023/01/29 06:42:03;0.00;0.00;0.62;0.00;0.00;0.62;4.20;3.80;;;18.20;21.10;;;;;;2255743;61;20365;-65
2023/01/29 06:44:48;0.00;0.00;0.62;0.00;0.00;0.62;3.97;3.57;;;18.20;21.20;;;;;;2255641;61;20416;-59
2023/01/29 06:47:33;0.00;0.00;0.62;0.00;0.00;0.62;3.70;3.40;;;18.30;21.40;;;;;;2255617;61;21057;-60
2023/01/29 06:50:18;0.00;0.00;0.62;0.00;0.00;0.62;4.10;3.70;;;18.30;21.40;;;;;;2266143;58;20953;-62
2023/01/29 06:53:03;0.00;0.00;0.62;0.00;0.00;0.62;3.70;3.40;;;18.40;21.60;;;;;;2255566;61;20827;-62
2023/01/29 06:55:51;0.00;0.00;0.62;0.00;0.00;0.62;3.67;3.27;;;18.40;21.60;;;;;;2255533;61;20365;-60
2023/01/29 06:58:38;0.00;0.00;0.62;0.00;0.00;0.62;3.80;3.30;;;18.40;21.60;;;;;;2255098;61;20365;-61
2023/01/29 07:01:23;0.00;0.00;0.62;0.00;0.00;0.62;3.00;2.77;;;18.40;21.70;;;;;;2255951;61;20358;-57
2023/01/29 07:04:08;0.00;0.00;0.62;0.00;0.00;0.62;3.20;2.90;;;18.50;21.80;;;;;;2255178;61;20446;-59
2023/01/29 07:06:52;0.00;0.00;0.62;0.00;0.00;0.62;3.20;2.90;;;18.50;21.80;;;;;;2255122;61;20910;-62
2023/01/29 07:09:37;0.00;0.00;0.62;0.00;0.00;0.62;2.93;2.63;;;18.50;21.80;;;;;;2255894;61;20598;-60
2023/01/29 07:12:22;0.00;0.00;0.62;0.00;0.00;0.62;2.70;2.40;;;18.50;21.80;;;;;;2255376;61;20369;-57
2023/01/29 07:15:11;0.00;0.00;0.62;0.00;0.00;0.62;3.03;2.30;;;18.60;21.90;;;;;;2255272;61;20369;-62
2023/01/29 07:17:58;0.00;0.00;0.62;0.00;0.00;0.62;2.30;2.10;;;18.60;22.00;;;;;;2255070;61;20381;-61
2023/01/29 07:20:42;0.00;0.00;0.62;0.00;0.00;0.62;2.63;2.17;;;18.60;22.00;;;;;;2255212;61;20381;-62
2023/01/29 07:23:27;0.00;0.00;0.62;0.00;0.00;0.62;2.70;2.30;;;18.70;22.10;;;;;;2255690;61;20370;-62
2023/01/29 07:26:12;0.00;0.00;0.62;0.00;0.00;0.62;2.70;2.30;;;18.70;22.10;;;;;;2255043;61;20409;-60
2023/01/29 07:28:57;0.00;0.00;0.62;0.00;0.00;0.62;3.23;2.53;;;18.70;22.10;;;;;;2255209;61;20986;-58
2023/01/29 07:31:43;0.00;0.00;0.62;0.00;0.00;0.62;2.90;2.53;;;18.70;22.20;;;;;;2255815;61;20366;-55
2023/01/29 07:34:28;0.00;0.00;0.62;0.00;0.00;0.62;2.57;2.37;;;18.70;22.10;;;;;;2255414;61;20956;-60
2023/01/29 07:37:13;0.00;0.00;0.62;0.00;0.00;0.62;2.20;2.00;;;18.80;22.20;;;;;;2254997;61;20902;-59
2023/01/29 07:40:00;0.00;0.00;0.62;0.00;0.00;0.62;2.27;1.80;;;18.80;22.30;;;;;;2255909;61;20459;-63
2023/01/29 07:42:45;0.00;0.00;0.62;0.00;0.00;0.62;2.63;2.30;;;18.80;22.30;;;;;;2255569;61;20902;-64
2023/01/29 07:45:32;0.00;0.00;0.62;0.00;0.00;0.62;3.33;2.57;;;18.80;22.30;;;;;;2255683;61;20409;-60
2023/01/29 07:48:18;0.00;0.00;0.62;0.00;0.00;0.62;5.10;4.60;;;18.80;22.20;;;;;;2255388;61;20409;-61
2023/01/29 07:51:03;0.00;0.00;0.62;0.00;0.00;0.62;6.20;5.40;;;18.80;22.10;;;;;;2255298;61;20409;-65
2023/01/29 07:53:48;0.00;0.00;0.62;0.00;0.00;0.62;7.70;6.73;;;18.80;22.00;;;;;;2257861;61;20413;-64
2023/01/29 07:56:32;0.00;0.00;0.62;0.00;0.00;0.62;9.03;7.93;;;18.80;21.90;;;;;;2257526;61;20398;-64
2023/01/29 07:59:17;0.00;0.00;0.62;0.00;0.00;0.62;8.30;7.13;;;18.80;21.60;;;;;;2256709;61;20382;-64
2023/01/29 08:02:02;0.00;0.00;0.62;0.00;0.00;0.62;11.23;9.73;;;18.70;21.50;;;;;;2255985;61;20874;-62
2023/01/29 08:04:48;0.00;0.00;0.62;0.00;0.00;0.62;11.20;10.00;;;18.70;21.40;;;;;;2255324;61;20431;-63
2023/01/29 08:07:35;0.00;0.00;0.62;0.00;0.00;0.62;9.03;8.13;;;18.60;21.30;;;;;;2255348;61;20398;-61
2023/01/29 08:10:20;0.00;0.00;0.62;0.00;0.00;0.62;8.70;7.80;;;18.60;21.40;;;;;;2255730;61;20398;-63
2023/01/29 08:13:07;0.00;0.00;0.62;0.00;0.00;0.62;9.47;8.40;;;18.60;21.50;;;;;;2255448;61;20514;-64
2023/01/29 08:15:52;0.00;0.00;0.62;0.00;0.00;0.62;10.73;9.63;;;18.60;21.50;;;;;;2255922;61;20936;-64
2023/01/29 08:18:37;0.00;0.00;0.62;0.00;0.00;0.62;10.90;8.70;;;18.50;21.60;;;;;;2256329;61;20246;-61
2023/01/29 08:21:23;0.00;0.00;0.62;0.00;0.00;0.62;8.70;7.80;;;18.50;21.40;;;;;;2255365;61;20832;-64
2023/01/29 08:24:08;0.00;0.00;0.62;0.00;0.00;0.62;8.90;7.47;;;18.50;21.40;;;;;;2256080;61;20388;-63
2023/01/29 08:26:53;0.00;0.00;0.62;0.00;0.00;0.62;9.83;8.83;;;18.60;21.50;;;;;;2255374;61;20364;-64
2023/01/29 08:29:29;0.00;0.00;0.62;0.00;0.00;0.62;9.93;8.70;;;18.50;21.40;;;;;;2255673;61;20374;-65
2023/01/29 08:32:09;0.00;0.00;0.62;0.00;0.00;0.62;9.10;8.10;;;18.50;21.40;;;;;;2254955;61;20362;-64
2023/01/29 08:34:45;0.00;0.00;0.62;0.00;0.00;0.62;7.93;6.83;;;18.50;21.50;;;;;;2255148;61;20510;-63
2023/01/29 08:37:23;0.00;0.00;0.62;0.00;0.00;0.62;8.50;6.87;;;18.50;21.50;;;;;;2255246;61;20351;-65
2023/01/29 08:40:11;0.00;0.00;0.62;0.00;0.00;0.62;10.73;8.83;;;18.50;21.60;;;;;;2255106;61;20382;-60
2023/01/29 08:42:57;0.00;0.00;0.62;0.00;0.00;0.62;9.23;7.83;;;18.50;21.50;;;;;;2255925;61;20361;-58
2023/01/29 08:45:43;0.00;0.00;0.62;0.00;0.00;0.62;10.53;9.00;;;18.40;21.50;;;;;;2254917;61;20468;-63
2023/01/29 08:48:29;0.00;0.00;0.62;0.00;0.00;0.62;9.50;8.30;;;18.50;21.50;;;;;;2254630;61;20459;-61
2023/01/29 08:51:13;0.00;0.00;0.62;0.00;0.00;0.62;9.60;8.60;;;18.40;21.40;;;;;;2255041;61;20397;-62
2023/01/29 08:53:59;0.00;0.00;0.62;0.00;0.00;0.62;11.50;9.70;;;18.40;21.50;;;;;;2249392;61;20817;-64
2023/01/29 08:56:44;0.00;0.00;0.62;0.00;0.00;0.62;8.67;7.73;;;18.40;21.40;;;;;;2251623;61;20397;-66
2023/01/29 08:59:30;0.00;0.00;0.62;0.00;0.00;0.62;9.87;8.60;;;18.30;21.40;;;;;;2251622;61;20891;-65
2023/01/29 09:02:15;0.00;0.00;0.62;0.00;0.00;0.62;10.63;8.90;;;18.30;21.40;;;;;;2252110;61;20378;-65
2023/01/29 09:04:59;0.00;0.00;0.62;0.00;0.00;0.62;8.07;7.10;;;18.30;22.00;;;;;;2251432;61;20385;-62
2023/01/29 09:07:44;0.00;0.00;0.62;0.00;0.00;0.62;9.77;8.67;;;18.30;21.50;;;;;;2251607;61;20354;-64
2023/01/29 09:10:30;0.00;0.00;0.62;0.00;0.00;0.62;9.07;8.17;;;18.30;21.50;;;;;;2252475;61;20437;-58
2023/01/29 09:13:15;0.00;0.00;0.62;0.00;0.00;0.62;9.60;8.60;;;18.30;21.50;;;;;;2250234;61;20374;-65
2023/01/29 09:16:01;0.00;0.00;0.62;0.00;0.00;0.62;10.37;8.80;;;18.30;21.50;;;;;;2251385;61;20402;-58
2023/01/29 09:18:45;0.00;0.00;0.62;0.00;0.00;0.62;9.40;7.67;;;18.20;21.40;;;;;;2335406;45;20369;-58
2023/01/29 09:21:30;0.00;0.00;0.62;0.00;0.00;0.62;9.60;8.60;;;18.20;21.40;;;;;;2255168;61;20998;-58
2023/01/29 09:24:15;0.00;0.00;0.62;0.00;0.00;0.62;12.10;9.13;;;18.20;21.40;;;;;;2255606;61;20378;-63
2023/01/29 09:27:02;0.00;0.00;0.62;0.00;0.00;0.62;10.80;8.70;;;18.20;21.50;;;;;;2255610;61;20898;-63
2023/01/29 09:29:46;0.00;0.00;0.62;0.00;0.00;0.62;11.17;8.83;;;18.10;21.40;;;;;;2259438;61;20393;-64
2023/01/29 09:32:33;0.00;0.00;0.62;0.00;0.00;0.62;8.73;7.10;;;18.10;21.40;;;;;;2256130;61;20366;-67
2023/01/29 09:35:18;0.00;0.00;0.62;0.00;0.00;0.62;8.63;7.20;;;18.10;21.40;;;;;;2254976;61;20440;-63
2023/01/29 09:38:03;0.00;0.00;0.62;0.00;0.00;0.62;7.77;6.87;;;18.20;21.50;;;;;;2256200;58;20455;-60
2023/01/29 09:41:02;0.00;0.00;0.62;0.00;0.00;0.62;8.37;7.47;;;18.10;21.50;;;;;;2255388;61;20440;-60
2023/01/29 09:43:53;0.00;0.00;0.62;0.00;0.00;0.62;7.77;6.97;;;18.20;21.70;;;;;;2255346;61;20413;-65
2023/01/29 09:46:42;0.00;0.00;0.62;0.00;0.00;0.62;7.80;7.00;;;18.10;21.60;;;;;;2254518;61;20378;-65
2023/01/29 09:49:33;0.00;0.00;0.62;0.00;0.00;0.62;9.33;7.60;;;18.10;21.60;;;;;;2649753;45;20795;-66
2023/01/29 09:52:24;0.00;0.00;0.62;0.00;0.00;0.62;8.57;7.37;;;18.20;21.70;;;;;;2255542;61;20498;-63
2023/01/29 09:55:17;0.00;0.00;0.62;0.00;0.00;0.62;13.40;8.17;;;18.10;21.70;;;;;;2255039;61;20357;-60
2023/01/29 09:58:11;0.00;0.00;0.62;0.00;0.00;0.62;9.60;8.50;;;18.10;21.60;;;;;;2254981;61;20409;-57
2023/01/29 10:01:07;0.00;0.00;0.62;0.00;0.00;0.62;10.13;8.10;;;18.10;21.60;;;;;;2255280;61;20884;-62
2023/01/29 10:04:20;0.00;0.00;0.62;0.00;0.00;0.62;10.20;6.50;;;18.10;21.60;;;;;;2254735;61;20398;-57
2023/01/29 10:07:23;0.00;0.00;0.62;0.00;0.00;0.62;7.03;6.20;;;18.10;21.80;;;;;;2255414;61;20874;-58
2023/01/29 10:10:22;0.00;0.00;0.62;0.00;0.00;0.62;6.20;5.60;;;18.10;21.70;;;;;;2255547;61;20432;-57
2023/01/29 10:13:19;0.00;0.00;0.62;0.00;0.00;0.62;6.23;4.67;;;18.20;21.90;;;;;;2258394;61;20416;-60
2023/01/29 10:16:30;0.00;0.00;0.62;0.00;0.00;0.62;4.47;4.00;;;18.20;22.00;;;;;;2255369;61;20450;-64
2023/01/29 10:19:49;0.00;0.00;0.62;0.00;0.00;0.62;5.00;3.47;;;18.20;22.00;;;;;;2255646;61;20389;-58
2023/01/29 10:22:50;0.00;0.00;0.62;0.00;0.00;0.62;4.00;3.60;;;18.30;22.00;;;;;;2257704;61;20373;-60
2023/01/29 10:25:40;0.00;0.00;0.62;0.00;0.00;0.62;4.10;3.10;;;18.30;22.00;;;;;;2255456;61;20357;-64
2023/01/29 10:28:34;0.00;0.00;0.62;0.00;0.00;0.62;3.87;3.17;;;18.40;22.20;;;;;;2255806;61;20361;-61
2023/01/29 10:31:26;0.00;0.00;0.62;0.00;0.00;0.62;3.50;3.17;;;18.40;22.20;;;;;;2255208;61;20386;-58
2023/01/29 10:34:18;0.00;0.00;0.62;0.00;0.00;0.62;3.90;3.37;;;18.40;22.20;;;;;;2255205;61;20799;-62
2023/01/29 10:37:17;0.00;0.00;0.62;0.00;0.00;0.62;3.37;3.07;;;18.50;22.30;;;;;;2254757;61;20803;-64
2023/01/29 10:40:17;0.00;0.00;0.62;0.00;0.00;0.62;3.70;2.77;;;18.50;22.30;;;;;;2256487;61;20377;-65
2023/01/29 10:43:07;0.00;0.00;0.62;0.00;0.00;0.62;6.43;4.20;;;18.60;22.40;;;;;;2258416;61;20413;-65
2023/01/29 10:46:05;0.00;0.00;0.62;0.00;0.00;0.62;5.20;4.43;;;18.60;22.50;;;;;;2257302;61;20902;-65
2023/01/29 10:49:05;0.00;0.00;0.62;0.00;0.00;0.62;5.73;4.90;;;18.60;22.40;;;;;;2256807;61;20390;-66
2023/01/29 10:52:08;0.00;0.00;0.62;0.00;0.00;0.62;5.97;4.70;;;18.70;22.50;;;;;;2257032;61;20393;-67
2023/01/29 10:55:07;0.00;0.00;0.62;0.00;0.00;0.62;5.87;5.27;;;18.70;22.50;;;;;;2257186;61;20365;-67
2023/01/29 10:58:05;0.00;0.00;0.62;0.00;0.00;0.62;5.10;4.60;;;18.70;22.50;;;;;;2257149;61;21075;-66
2023/01/29 11:00:51;0.00;0.00;0.62;0.00;0.00;0.62;6.00;4.70;;;18.80;22.50;;;;;;2256235;61;20402;-63
2023/01/29 11:03:36;0.00;0.00;0.62;0.00;0.00;0.62;5.00;4.23;;;18.80;22.50;;;;;;2256067;61;20366;-64
2023/01/29 11:06:27;0.00;0.00;0.62;0.00;0.00;0.62;6.97;4.43;;;18.80;22.50;;;;;;2255764;61;20518;-66
2023/01/29 11:09:25;0.00;0.00;0.62;0.00;0.00;0.62;5.17;4.23;;;18.90;22.50;;;;;;2255963;61;20475;-65
2023/01/29 11:12:13;0.00;0.00;0.62;0.00;0.00;0.62;5.90;4.77;;;18.90;22.50;;;;;;2255763;61;20971;-66
2023/01/29 11:15:04;0.00;0.00;0.62;0.00;0.00;0.62;5.20;4.03;;;18.90;22.40;;;;;;2255741;61;20412;-66
2023/01/29 11:18:03;0.00;0.00;0.62;0.00;0.00;0.62;4.53;4.13;;;18.90;22.40;;;;;;2255747;61;20875;-66
2023/01/29 11:21:01;0.00;0.00;0.62;0.00;0.00;0.62;6.33;4.93;;;19.00;22.40;;;;;;2256006;61;20436;-66
2023/01/29 11:23:47;0.00;0.00;0.62;0.00;0.00;0.62;7.00;5.87;;;19.00;22.50;;;;;;2255493;61;20392;-64
2023/01/29 11:26:36;0.00;0.00;0.62;0.00;0.00;0.62;5.80;5.20;;;19.00;22.60;;;;;;2255137;61;20812;-65
2023/01/29 11:29:40;0.00;0.00;0.62;0.00;0.00;0.62;7.17;5.57;;;19.00;22.50;;;;;;2255264;61;20437;-65
2023/01/29 11:32:28;0.00;0.00;0.62;0.00;0.00;0.62;8.00;4.90;;;19.10;22.60;;;;;;2255242;61;20767;-66
2023/01/29 11:35:22;0.00;0.00;0.62;0.00;0.00;0.62;5.77;4.97;;;19.10;22.50;;;;;;2255569;61;20417;-66
2023/01/29 11:38:20;0.00;0.00;0.62;0.00;0.00;0.62;5.63;4.50;;;19.10;22.50;;;;;;2255342;61;20417;-64